East Dubuque, Illinois
Current Conditions -  °F | °C
As of 5:53 AM on Saturday 25 Oct 2014 (Local Time) from KDBQ Reporting Station
Haze Haze  
Wind Chill: 52°   Ceiling: Unl
Heat Index: 52°   Visibility: 6mi
Dew Point: 51°   Wind: 9mph
Humidity: 97%   Direction: 300°WNW
Pressure: 29.95"   Gusts: NA
Location:  42.49°N, 90.64°W
Report Text: KDBQ 251053Z 30008KT 6SM BR CLR 11/11 A2995 RMK AO2 SLP141 T01110106
Loading
Personal Weather Stations






























Interactive Weather Map
Tropical Storm Tracking
New forecast layout! Learn more

10-Day Weather Forecast

Advertisements
Track Severe Weather on mobile